createdAt,value
2022-08-22T00:00:13.794Z,0
2022-08-22T00:01:16.840Z,0
2022-08-22T00:02:15.111Z,0
2022-08-22T00:03:45.497Z,0
2022-08-22T00:04:40.757Z,0
2022-08-22T00:05:34.251Z,0
2022-08-22T00:06:34.153Z,0
2022-08-22T00:07:35.364Z,0
2022-08-22T00:08:35.823Z,0
2022-08-22T00:09:37.316Z,0
2022-08-22T00:10:37.813Z,0
2022-08-22T00:11:40.533Z,0
2022-08-22T00:12:37.871Z,0
2022-08-22T00:13:39.089Z,0
2022-08-22T00:14:40.092Z,0
2022-08-22T00:15:54.550Z,0
2022-08-22T00:16:40.472Z,0
2022-08-22T00:17:40.393Z,0
2022-08-22T00:18:41.314Z,0
2022-08-22T00:19:41.937Z,0
2022-08-22T00:20:42.852Z,0
2022-08-22T00:21:47.388Z,0
2022-08-22T00:22:44.586Z,0
2022-08-22T00:23:45.251Z,0
2022-08-22T00:24:46.249Z,0
2022-08-22T00:25:47.162Z,0
2022-08-22T00:26:51.036Z,0
2022-08-22T00:27:56.470Z,0
2022-08-22T00:28:49.742Z,0
2022-08-22T00:29:51.106Z,0
2022-08-22T00:30:51.626Z,0
2022-08-22T00:31:51.544Z,0
2022-08-22T00:32:52.766Z,0
2022-08-22T00:33:52.664Z,0
2022-08-22T00:34:53.140Z,0
2022-08-22T00:35:56.647Z,0
2022-08-22T00:36:59.365Z,0
2022-08-22T00:37:55.396Z,0
2022-08-22T00:38:55.327Z,0
2022-08-22T00:39:56.206Z,0
2022-08-22T00:40:56.676Z,0
2022-08-22T00:41:57.869Z,0
2022-08-22T00:42:59.109Z,0
2022-08-22T00:43:58.704Z,0
2022-08-22T00:44:59.975Z,0
2022-08-22T00:46:01.588Z,0
2022-08-22T00:47:01.503Z,0
2022-08-22T00:48:02.536Z,0
2022-08-22T00:49:03.162Z,0
2022-08-22T00:50:03.400Z,0
2022-08-22T00:51:03.317Z,0
2022-08-22T00:52:04.539Z,0
2022-08-22T00:53:07.627Z,0
2022-08-22T00:54:04.547Z,0
2022-08-22T00:55:06.170Z,0
2022-08-22T00:56:06.210Z,0
2022-08-22T00:57:07.424Z,0
2022-08-22T00:58:08.283Z,0
2022-08-22T00:59:29.678Z,0
2022-08-22T01:00:08.597Z,0
2022-08-22T01:01:09.073Z,0
2022-08-22T01:02:09.837Z,0
2022-08-22T01:03:10.156Z,0
2022-08-22T01:04:11.062Z,0
2022-08-22T01:05:13.240Z,0
2022-08-22T01:06:12.431Z,0
2022-08-22T01:07:12.486Z,0
2022-08-22T01:08:12.707Z,0
2022-08-22T01:09:13.620Z,0
2022-08-22T01:10:14.238Z,0
2022-08-22T01:11:15.148Z,0
2022-08-22T01:12:15.771Z,0
2022-08-22T01:13:18.685Z,0
2022-08-22T01:14:17.174Z,0
2022-08-22T01:15:16.754Z,0
2022-08-22T01:16:17.962Z,0
2022-08-22T01:17:18.583Z,0
2022-08-22T01:18:19.778Z,0
2022-08-22T01:19:19.396Z,0
2022-08-22T01:20:20.023Z,0
2022-08-22T01:21:29.863Z,0
2022-08-22T01:22:21.759Z,0
2022-08-22T01:23:21.989Z,0
2022-08-22T01:24:24.603Z,0
2022-08-22T01:25:31.674Z,0
2022-08-22T01:26:26.807Z,0
2022-08-22T01:27:25.469Z,0
2022-08-22T01:28:30.813Z,0
2022-08-22T01:29:34.355Z,0
2022-08-22T01:30:29.561Z,0
2022-08-22T01:31:27.304Z,0
2022-08-22T01:32:28.226Z,0
2022-08-22T01:33:28.445Z,0
2022-08-22T01:34:28.763Z,0
2022-08-22T01:35:29.206Z,0
2022-08-22T01:36:30.425Z,0
2022-08-22T01:37:30.322Z,0
2022-08-22T01:38:30.952Z,0
2022-08-22T01:39:31.170Z,0
2022-08-22T01:40:32.862Z,0
2022-08-22T01:41:31.807Z,0
2022-08-22T01:42:32.306Z,0
2022-08-22T01:44:10.289Z,0
2022-08-22T01:44:32.785Z,0
2022-08-22T01:46:33.151Z,0
2022-08-22T01:47:43.376Z,0
2022-08-22T01:48:35.214Z,0
2022-08-22T01:49:35.405Z,0
2022-08-22T01:50:35.018Z,0
2022-08-22T01:51:35.928Z,0
2022-08-22T01:52:36.544Z,0
2022-08-22T01:53:39.323Z,0
2022-08-22T01:54:38.240Z,0
2022-08-22T01:55:38.109Z,0
2022-08-22T01:56:39.012Z,0
2022-08-22T01:57:39.503Z,0
2022-08-22T01:58:39.421Z,0
2022-08-22T01:59:48.468Z,0
2022-08-22T02:00:46.991Z,0
2022-08-22T02:01:41.911Z,0
2022-08-22T02:02:41.821Z,0
2022-08-22T02:03:42.452Z,0
2022-08-22T02:04:42.777Z,0
2022-08-22T02:05:43.198Z,0
2022-08-22T02:06:43.392Z,0
2022-08-22T02:07:43.588Z,0
2022-08-22T02:08:44.207Z,0
2022-08-22T02:09:45.403Z,0
2022-08-22T02:10:46.097Z,0
2022-08-22T02:11:46.716Z,0
2022-08-22T02:12:46.635Z,0
2022-08-22T02:13:47.851Z,0
2022-08-22T02:14:47.747Z,0
2022-08-22T02:15:49.542Z,0
2022-08-22T02:16:49.180Z,0
2022-08-22T02:17:50.380Z,0
2022-08-22T02:18:50.381Z,0
2022-08-22T02:19:50.418Z,0
2022-08-22T02:20:51.323Z,0
2022-08-22T02:21:52.534Z,0
2022-08-22T02:22:55.871Z,0
2022-08-22T02:23:53.788Z,0
2022-08-22T02:24:53.893Z,0
2022-08-22T02:25:54.615Z,0
2022-08-22T02:26:55.251Z,0
2022-08-22T02:27:55.457Z,0
2022-08-22T02:29:08.171Z,0
2022-08-22T02:29:55.815Z,0
2022-08-22T02:30:56.436Z,0
2022-08-22T02:31:57.329Z,0
2022-08-22T02:32:57.972Z,0
2022-08-22T02:33:59.168Z,0
2022-08-22T02:34:59.905Z,0
2022-08-22T02:36:00.890Z,0
2022-08-22T02:37:03.951Z,0
2022-08-22T02:38:02.729Z,0
2022-08-22T02:39:04.222Z,0
2022-08-22T02:40:05.012Z,0
2022-08-22T02:41:05.769Z,0
2022-08-22T02:42:06.409Z,0
2022-08-22T02:43:07.308Z,0
2022-08-22T02:44:07.499Z,0
2022-08-22T02:45:08.567Z,0
2022-08-22T02:46:07.982Z,0
2022-08-22T02:47:08.905Z,0
2022-08-22T02:48:10.083Z,0
2022-08-22T02:49:09.420Z,0
2022-08-22T02:50:12.741Z,0
2022-08-22T02:51:11.280Z,0
2022-08-22T02:52:11.905Z,0
2022-08-22T02:53:16.004Z,0
2022-08-22T02:54:13.928Z,0
2022-08-22T02:55:14.390Z,0
2022-08-22T02:56:14.815Z,0
2022-08-22T02:57:20.400Z,0
2022-08-22T02:58:16.010Z,0
2022-08-22T02:59:16.214Z,0
2022-08-22T03:00:38.909Z,0
2022-08-22T03:01:17.488Z,0
2022-08-22T03:02:17.244Z,0
2022-08-22T03:03:17.733Z,0
2022-08-22T03:04:17.944Z,0
2022-08-22T03:05:18.353Z,0
2022-08-22T03:06:19.317Z,0
2022-08-22T03:07:19.110Z,0
2022-08-22T03:08:21.067Z,0
2022-08-22T03:09:20.955Z,0
2022-08-22T03:10:22.171Z,0
2022-08-22T03:11:21.789Z,0
2022-08-22T03:12:23.004Z,0
2022-08-22T03:13:23.638Z,0
2022-08-22T03:14:23.257Z,0
2022-08-22T03:15:24.458Z,0
2022-08-22T03:16:25.162Z,0
2022-08-22T03:17:25.803Z,0
2022-08-22T03:18:26.992Z,0
2022-08-22T03:19:29.530Z,0
2022-08-22T03:20:27.123Z,0
2022-08-22T03:21:28.612Z,0
2022-08-22T03:22:29.364Z,0
2022-08-22T03:23:29.696Z,0
2022-08-22T03:24:30.892Z,0
2022-08-22T03:25:30.795Z,0
2022-08-22T03:26:31.115Z,0
2022-08-22T03:27:47.164Z,0
2022-08-22T03:28:32.387Z,0
2022-08-22T03:29:32.881Z,0
2022-08-22T03:30:33.798Z,0
2022-08-22T03:31:33.397Z,0
2022-08-22T03:32:34.617Z,0
2022-08-22T03:33:35.228Z,0
2022-08-22T03:34:36.398Z,0
2022-08-22T03:35:36.426Z,0
2022-08-22T03:36:36.849Z,0
2022-08-22T03:37:36.743Z,0
2022-08-22T03:38:37.649Z,0
2022-08-22T03:39:37.605Z,0
2022-08-22T03:40:42.653Z,0
2022-08-22T03:41:39.579Z,0
2022-08-22T03:42:39.920Z,0
2022-08-22T03:43:40.539Z,0
2022-08-22T03:44:41.471Z,0
2022-08-22T03:45:42.667Z,0
2022-08-22T03:46:42.938Z,0
2022-08-22T03:47:44.162Z,0
2022-08-22T03:48:44.380Z,0
2022-08-22T03:49:45.304Z,0
2022-08-22T03:50:45.502Z,0
2022-08-22T03:51:46.065Z,0
2022-08-22T03:52:46.267Z,0
2022-08-22T03:53:46.472Z,0
2022-08-22T03:54:47.090Z,0
2022-08-22T03:55:48.709Z,0
2022-08-22T03:56:48.410Z,0
2022-08-22T03:57:49.034Z,0
2022-08-22T03:58:49.355Z,0
2022-08-22T03:59:54.480Z,0
2022-08-22T04:00:52.002Z,0
2022-08-22T04:01:52.644Z,0
2022-08-22T04:02:55.241Z,0
2022-08-22T04:03:53.173Z,4
2022-08-22T04:04:53.811Z,4
2022-08-22T04:05:58.677Z,0
2022-08-22T04:07:02.498Z,4
2022-08-22T04:07:56.850Z,4
2022-08-22T04:08:55.804Z,4
2022-08-22T04:10:02.232Z,4
2022-08-22T04:10:57.276Z,4
2022-08-22T04:11:58.686Z,4
2022-08-22T04:13:00.178Z,8
2022-08-22T04:14:00.111Z,8
2022-08-22T04:15:00.326Z,8
2022-08-22T04:16:00.937Z,8
2022-08-22T04:17:00.933Z,12
2022-08-22T04:18:03.476Z,8
2022-08-22T04:19:03.401Z,12
2022-08-22T04:20:03.016Z,12
2022-08-22T04:21:03.614Z,16
2022-08-22T04:22:04.830Z,16
2022-08-22T04:23:05.449Z,20
2022-08-22T04:24:06.369Z,20
2022-08-22T04:25:13.873Z,20
2022-08-22T04:26:18.447Z,24
2022-08-22T04:27:08.881Z,24
2022-08-22T04:28:09.242Z,24
2022-08-22T04:29:09.432Z,28
2022-08-22T04:30:10.651Z,28
2022-08-22T04:31:10.571Z,32
2022-08-22T04:32:14.479Z,32
2022-08-22T04:33:11.887Z,36
2022-08-22T04:34:12.578Z,40
2022-08-22T04:35:14.214Z,40
2022-08-22T04:36:14.810Z,40
2022-08-22T04:37:15.386Z,44
2022-08-22T04:38:16.006Z,48
2022-08-22T04:39:15.924Z,52
2022-08-22T04:40:17.234Z,52
2022-08-22T04:41:16.976Z,56
2022-08-22T04:42:41.842Z,64
2022-08-22T04:43:19.067Z,64
2022-08-22T04:44:19.564Z,68
2022-08-22T04:45:19.823Z,76
2022-08-22T04:46:20.478Z,80
2022-08-22T04:47:21.718Z,84
2022-08-22T04:48:22.216Z,92
2022-08-22T04:49:22.708Z,92
2022-08-22T04:50:22.926Z,96
2022-08-22T04:51:23.568Z,104
2022-08-22T04:52:24.203Z,104
2022-08-22T04:53:24.080Z,108
2022-08-22T04:54:24.982Z,116
2022-08-22T04:55:26.177Z,116
2022-08-22T04:56:26.803Z,124
2022-08-22T04:57:27.076Z,124
2022-08-22T04:58:27.574Z,132
2022-08-22T04:59:30.113Z,132
2022-08-22T05:00:29.008Z,136
2022-08-22T05:01:29.447Z,140
2022-08-22T05:02:29.974Z,140
2022-08-22T05:03:31.169Z,148
2022-08-22T05:04:31.130Z,148
2022-08-22T05:05:30.750Z,152
2022-08-22T05:06:32.343Z,156
2022-08-22T05:07:33.952Z,156
2022-08-22T05:08:32.736Z,160
2022-08-22T05:09:33.314Z,164
2022-08-22T05:10:32.637Z,168
2022-08-22T05:11:33.852Z,172
2022-08-22T05:12:38.985Z,176
2022-08-22T05:13:35.602Z,180
2022-08-22T05:14:36.390Z,188
2022-08-22T05:15:37.451Z,192
2022-08-22T05:16:37.667Z,196
2022-08-22T05:17:38.663Z,204
2022-08-22T05:18:41.116Z,208
2022-08-22T05:19:45.698Z,216
2022-08-22T05:20:40.620Z,220
2022-08-22T05:21:41.086Z,224
2022-08-22T05:22:40.989Z,232
2022-08-22T05:23:41.905Z,236
2022-08-22T05:24:42.417Z,240
2022-08-22T05:25:43.844Z,248
2022-08-22T05:26:42.916Z,252
2022-08-22T05:27:43.212Z,256
2022-08-22T05:28:43.838Z,260
2022-08-22T05:29:44.565Z,264
2022-08-22T05:30:45.767Z,272
2022-08-22T05:31:45.424Z,276
2022-08-22T05:32:46.347Z,280
2022-08-22T05:33:47.240Z,288
2022-08-22T05:34:48.194Z,292
2022-08-22T05:35:58.196Z,296
2022-08-22T05:36:49.456Z,300
2022-08-22T05:37:49.153Z,308
2022-08-22T05:38:50.120Z,308
2022-08-22T05:39:51.177Z,316
2022-08-22T05:40:52.006Z,324
2022-08-22T05:41:53.221Z,328
2022-08-22T05:42:53.122Z,336
2022-08-22T05:43:52.999Z,344
2022-08-22T05:44:54.203Z,368
2022-08-22T05:45:54.411Z,348
2022-08-22T05:46:55.352Z,356
2022-08-22T05:47:56.051Z,356
2022-08-22T05:48:56.393Z,364
2022-08-22T05:49:57.613Z,372
2022-08-22T05:51:01.641Z,380
2022-08-22T05:51:57.836Z,380
2022-08-22T05:52:58.034Z,364
2022-08-22T05:53:58.677Z,320
2022-08-22T05:54:59.000Z,328
2022-08-22T05:55:59.918Z,332
2022-08-22T05:57:01.254Z,296
2022-08-22T05:58:02.026Z,300
2022-08-22T05:59:00.654Z,300
2022-08-22T06:00:01.107Z,304
2022-08-22T06:01:02.074Z,312
2022-08-22T06:02:02.842Z,344
2022-08-22T06:03:02.954Z,440
2022-08-22T06:04:03.451Z,492
2022-08-22T06:05:04.481Z,552
2022-08-22T06:06:03.718Z,604
2022-08-22T06:07:05.361Z,660
2022-08-22T06:08:06.856Z,688
2022-08-22T06:09:06.774Z,744
2022-08-22T06:10:07.971Z,776
2022-08-22T06:11:08.169Z,784
2022-08-22T06:12:12.632Z,792
2022-08-22T06:13:11.484Z,804
2022-08-22T06:14:10.050Z,808
2022-08-22T06:15:20.851Z,800
2022-08-22T06:16:10.879Z,788
2022-08-22T06:17:11.503Z,796
2022-08-22T06:18:12.504Z,796
2022-08-22T06:19:25.553Z,816
2022-08-22T06:20:13.758Z,832
2022-08-22T06:21:14.385Z,844
2022-08-22T06:22:24.331Z,840
2022-08-22T06:23:16.272Z,816
2022-08-22T06:25:17.358Z,740
2022-08-22T06:26:32.038Z,672
2022-08-22T06:27:17.962Z,728
2022-08-22T06:28:18.471Z,748
2022-08-22T06:29:18.798Z,760
2022-08-22T06:30:20.021Z,824
2022-08-22T06:31:20.363Z,860
2022-08-22T06:32:44.407Z,732
2022-08-22T06:33:23.894Z,912
2022-08-22T06:34:23.116Z,920
2022-08-22T06:35:23.032Z,908
2022-08-22T06:36:26.918Z,912
2022-08-22T06:37:24.135Z,920
2022-08-22T06:38:24.373Z,932
2022-08-22T06:39:25.290Z,956
2022-08-22T06:40:25.615Z,956
2022-08-22T06:41:26.575Z,956
2022-08-22T06:42:28.042Z,940
2022-08-22T06:43:26.958Z,1040
2022-08-22T06:44:28.169Z,1760
2022-08-22T06:45:28.861Z,3264
2022-08-22T06:46:30.757Z,2472
2022-08-22T06:47:30.783Z,1960
2022-08-22T06:48:32.016Z,2484
2022-08-22T06:49:32.226Z,5816
2022-08-22T06:50:33.127Z,4964
2022-08-22T06:51:35.014Z,4596
2022-08-22T06:52:35.264Z,3424
2022-08-22T06:53:35.187Z,3292
2022-08-22T06:54:39.842Z,2996
2022-08-22T06:55:37.050Z,2756
2022-08-22T06:56:36.958Z,2772
2022-08-22T06:57:37.308Z,2880
2022-08-22T06:58:42.372Z,2480
2022-08-22T06:59:54.124Z,2876
2022-08-22T07:00:39.768Z,3420
2022-08-22T07:01:40.893Z,4092
2022-08-22T07:02:40.999Z,4056
2022-08-22T07:03:42.228Z,3824
2022-08-22T07:04:42.427Z,3708
2022-08-22T07:05:43.658Z,3572
2022-08-22T07:06:43.582Z,3296
2022-08-22T07:07:44.216Z,3168
2022-08-22T07:08:49.413Z,3152
2022-08-22T07:09:45.338Z,3304
2022-08-22T07:10:46.264Z,3528
2022-08-22T07:11:46.769Z,3428
2022-08-22T07:12:46.711Z,3496
2022-08-22T07:13:47.925Z,3776
2022-08-22T07:14:48.135Z,4124
2022-08-22T07:15:48.657Z,3920
2022-08-22T07:16:48.769Z,3872
2022-08-22T07:17:51.827Z,3784
2022-08-22T07:18:50.576Z,3584
2022-08-22T07:19:50.511Z,2828
2022-08-22T07:20:53.167Z,2184
2022-08-22T07:21:50.844Z,1868
2022-08-22T07:22:54.008Z,2100
2022-08-22T07:23:52.299Z,1388
2022-08-22T07:24:51.927Z,936
2022-08-22T07:25:52.832Z,964
2022-08-22T07:26:54.062Z,1256
2022-08-22T07:28:00.522Z,1868
2022-08-22T07:29:17.412Z,772
2022-08-22T07:30:16.393Z,812
2022-08-22T07:31:12.472Z,696
2022-08-22T07:32:11.945Z,648
2022-08-22T07:33:37.563Z,716
2022-08-22T07:34:13.791Z,1020
2022-08-22T07:35:14.018Z,1568
2022-08-22T07:36:13.946Z,812
2022-08-22T07:37:14.269Z,748
2022-08-22T07:38:15.806Z,692
2022-08-22T07:39:16.526Z,692
2022-08-22T07:40:16.120Z,692
2022-08-22T07:41:16.478Z,692
2022-08-22T07:42:17.427Z,708
2022-08-22T07:43:18.351Z,752
2022-08-22T07:44:18.276Z,792
2022-08-22T07:45:19.067Z,844
2022-08-22T07:46:20.713Z,856
2022-08-22T07:47:31.622Z,928
2022-08-22T07:48:32.080Z,1600
2022-08-22T07:49:45.895Z,1412
2022-08-22T07:50:42.333Z,1464
2022-08-22T07:51:42.384Z,1488
2022-08-22T07:52:44.031Z,1460
2022-08-22T07:53:44.781Z,1516
2022-08-22T07:54:45.741Z,1492
2022-08-22T07:56:01.177Z,1468
2022-08-22T07:56:47.106Z,1444
2022-08-22T07:57:47.034Z,1436
2022-08-22T07:58:48.234Z,1420
2022-08-22T07:59:48.259Z,1428
2022-08-22T08:00:48.917Z,1416
2022-08-22T08:01:50.189Z,1392
2022-08-22T08:02:50.193Z,1420
2022-08-22T08:03:52.275Z,1512
2022-08-22T08:04:51.931Z,1616
2022-08-22T08:05:51.559Z,1648
2022-08-22T08:06:51.940Z,1708
2022-08-22T08:07:52.290Z,1740
2022-08-22T08:08:53.444Z,1640
2022-08-22T08:09:54.163Z,1504
2022-08-22T08:10:55.114Z,1532
2022-08-22T08:11:56.055Z,1548
2022-08-22T08:13:12.959Z,1508
2022-08-22T08:13:57.185Z,1512
2022-08-22T08:14:58.105Z,1512
2022-08-22T08:15:59.025Z,1464
2022-08-22T08:16:59.245Z,1544
2022-08-22T08:17:59.970Z,1720
2022-08-22T08:18:59.991Z,1988
2022-08-22T08:20:01.395Z,1840
2022-08-22T08:21:01.316Z,1724
2022-08-22T08:22:01.230Z,1644
2022-08-22T08:23:02.161Z,1716
2022-08-22T08:24:02.441Z,1840
2022-08-22T08:25:02.914Z,1820
2022-08-22T08:26:04.962Z,1736
2022-08-22T08:27:03.918Z,1992
2022-08-22T08:28:06.216Z,1908
2022-08-22T08:29:05.622Z,1424
2022-08-22T08:30:06.654Z,1256
2022-08-22T08:31:07.148Z,1236
2022-08-22T08:32:08.374Z,1244
2022-08-22T08:33:36.536Z,1356
2022-08-22T08:34:09.203Z,1680
2022-08-22T08:35:09.830Z,3756
2022-08-22T08:36:14.249Z,6300
2022-08-22T08:37:12.639Z,5748
2022-08-22T08:38:12.530Z,2452
2022-08-22T08:39:13.134Z,1444
2022-08-22T08:40:14.017Z,1376
2022-08-22T08:41:14.630Z,1276
2022-08-22T08:42:14.457Z,1216
2022-08-22T08:43:16.631Z,1192
2022-08-22T08:44:15.861Z,1184
2022-08-22T08:45:15.791Z,1172
2022-08-22T08:46:17.061Z,1164
2022-08-22T08:47:18.531Z,1184
2022-08-22T08:48:16.865Z,1272
2022-08-22T08:49:18.093Z,1484
2022-08-22T08:50:21.386Z,2112
2022-08-22T08:51:21.342Z,4044
2022-08-22T08:52:19.805Z,8220
2022-08-22T08:53:23.012Z,9876
2022-08-22T08:54:21.432Z,10500
2022-08-22T08:55:37.396Z,11280
2022-08-22T08:56:25.491Z,11240
2022-08-22T08:57:25.661Z,9184
2022-08-22T08:58:24.608Z,6628
2022-08-22T08:59:23.183Z,7748
2022-08-22T09:00:29.010Z,10580
2022-08-22T09:04:30.632Z,10356
2022-08-22T09:05:31.320Z,11012
2022-08-22T09:06:32.260Z,11916
2022-08-22T09:07:31.305Z,12332
2022-08-22T09:08:33.233Z,12360
2022-08-22T09:09:35.182Z,12440
2022-08-22T09:10:38.801Z,12580
2022-08-22T09:11:41.301Z,12624
2022-08-22T09:12:34.884Z,12628
2022-08-22T09:13:46.065Z,12704
2022-08-22T09:14:39.817Z,12744
2022-08-22T09:15:44.420Z,12772
2022-08-22T09:16:37.314Z,12832
2022-08-22T09:17:39.552Z,12948
2022-08-22T09:18:40.469Z,12936
2022-08-22T09:19:39.408Z,12936
2022-08-22T09:20:40.042Z,12984
2022-08-22T09:21:43.624Z,12956
2022-08-22T09:25:52.910Z,13052
2022-08-22T09:26:46.531Z,13060
2022-08-22T09:27:47.087Z,13100
2022-08-22T09:28:51.731Z,13152
2022-08-22T09:30:11.496Z,13180
2022-08-22T09:30:54.090Z,13184
2022-08-22T09:32:05.873Z,13340
2022-08-22T09:32:51.103Z,13304
2022-08-22T09:33:50.456Z,13296
2022-08-22T09:34:53.640Z,13252
2022-08-22T09:35:54.139Z,13304
2022-08-22T09:36:51.439Z,13316
2022-08-22T09:37:53.913Z,13340
2022-08-22T09:38:58.879Z,13324
2022-08-22T09:39:55.405Z,13288
2022-08-22T09:40:55.188Z,13380
2022-08-22T09:42:00.292Z,13356
2022-08-22T09:42:57.887Z,13272
2022-08-22T09:44:00.001Z,13256
2022-08-22T09:44:56.167Z,13220
2022-08-22T09:45:58.495Z,13204
2022-08-22T09:46:56.556Z,13440
2022-08-22T09:48:12.087Z,13368
2022-08-22T09:48:58.598Z,13400
2022-08-22T09:50:02.003Z,13352
2022-08-22T09:51:37.716Z,2228
2022-08-22T09:52:05.327Z,13504
2022-08-22T09:53:02.267Z,5840
2022-08-22T09:54:04.148Z,13036
2022-08-22T09:55:03.787Z,12920
2022-08-22T09:56:07.192Z,13152
2022-08-22T09:57:04.991Z,13184
2022-08-22T09:58:11.296Z,1636
2022-08-22T09:59:09.764Z,5340
2022-08-22T10:00:08.950Z,1264
2022-08-22T10:01:08.054Z,1100
2022-08-22T10:02:20.658Z,1076
2022-08-22T10:03:12.649Z,1032
2022-08-22T10:04:11.931Z,976
2022-08-22T10:05:12.228Z,872
2022-08-22T10:06:14.773Z,928
2022-08-22T10:07:18.571Z,4580
2022-08-22T10:08:19.656Z,8348
2022-08-22T10:09:14.947Z,13348
2022-08-22T10:10:15.075Z,1380
2022-08-22T10:11:18.372Z,1344
2022-08-22T10:12:18.943Z,4172
2022-08-22T10:13:22.402Z,13288
2022-08-22T10:14:21.987Z,12620
2022-08-22T10:15:18.632Z,12524
2022-08-22T10:16:21.208Z,12404
2022-08-22T10:17:28.508Z,12328
2022-08-22T10:18:21.309Z,12288
2022-08-22T10:19:19.974Z,12328
2022-08-22T10:20:21.989Z,12316
2022-08-22T10:21:22.324Z,12324
2022-08-22T10:22:23.184Z,12356
2022-08-22T10:23:26.753Z,12312
2022-08-22T10:24:43.628Z,12396
2022-08-22T10:25:24.442Z,12408
2022-08-22T10:26:38.490Z,12512
2022-08-22T10:27:34.359Z,12516
2022-08-22T10:28:28.753Z,12536
2022-08-22T10:29:28.398Z,12392
2022-08-22T10:30:29.576Z,12376
2022-08-22T10:31:29.567Z,12444
2022-08-22T10:32:38.411Z,12480
2022-08-22T10:33:35.037Z,12480
2022-08-22T10:34:36.597Z,12388
2022-08-22T10:35:33.789Z,12300
2022-08-22T10:36:32.502Z,12148
2022-08-22T10:37:35.092Z,12044
2022-08-22T10:38:43.885Z,12024
2022-08-22T10:39:38.220Z,12008
2022-08-22T10:40:35.982Z,11948
2022-08-22T10:41:36.365Z,11988
2022-08-22T10:42:41.925Z,11992
2022-08-22T10:43:40.863Z,11948
2022-08-22T10:44:36.787Z,11940
2022-08-22T10:45:47.374Z,11876
2022-08-22T10:46:39.589Z,11816
2022-08-22T10:47:38.898Z,11864
2022-08-22T10:48:38.823Z,11884
2022-08-22T10:49:40.265Z,11844
2022-08-22T10:50:42.952Z,11852
2022-08-22T10:51:42.366Z,11784
2022-08-22T10:52:42.070Z,11732
2022-08-22T10:53:42.380Z,11788
2022-08-22T10:54:45.243Z,11800
2022-08-22T10:55:44.337Z,11752
2022-08-22T10:56:49.343Z,11768
2022-08-22T10:57:48.369Z,11712
2022-08-22T10:58:49.203Z,11652
2022-08-22T10:59:46.520Z,11612
2022-08-22T11:00:55.653Z,11488
2022-08-22T11:01:53.816Z,11524
2022-08-22T11:03:03.575Z,11428
2022-08-22T11:03:52.517Z,11476
2022-08-22T11:04:51.538Z,11488
2022-08-22T11:05:56.800Z,11488
2022-08-22T11:06:55.909Z,11500
2022-08-22T11:07:59.574Z,11572
2022-08-22T11:08:54.948Z,11484
2022-08-22T11:09:59.775Z,11448
2022-08-22T11:10:57.789Z,11252
2022-08-22T11:11:55.544Z,11264
2022-08-22T11:12:55.903Z,11232
2022-08-22T11:14:00.794Z,11208
2022-08-22T11:14:59.155Z,11136
2022-08-22T11:16:04.245Z,11128
2022-08-22T11:17:23.714Z,11228
2022-08-22T11:18:24.906Z,11344
2022-08-22T11:19:26.825Z,10824
2022-08-22T11:20:27.119Z,1376
2022-08-22T11:21:27.376Z,1168
2022-08-22T11:22:26.994Z,1128
2022-08-22T11:23:29.384Z,1096
2022-08-22T11:25:05.408Z,1112
2022-08-22T11:25:52.355Z,1108
2022-08-22T11:26:53.676Z,1144
2022-08-22T11:27:46.215Z,1128
2022-08-22T11:28:36.577Z,1120
2022-08-22T11:29:36.000Z,1164
2022-08-22T11:30:50.501Z,1072
2022-08-22T11:31:47.146Z,1004
2022-08-22T11:32:37.575Z,932
2022-08-22T11:33:58.426Z,920
2022-08-22T11:34:38.517Z,904
2022-08-22T11:35:41.072Z,896
2022-08-22T11:36:42.682Z,1016
2022-08-22T11:38:01.485Z,1136
2022-08-22T11:38:55.237Z,3972
2022-08-22T11:39:55.983Z,9588
2022-08-22T11:40:55.340Z,9432
2022-08-22T11:42:03.460Z,9408
2022-08-22T11:42:59.247Z,9464
2022-08-22T11:43:58.501Z,9480
2022-08-22T11:45:01.859Z,9340
2022-08-22T11:45:58.199Z,9316
2022-08-22T11:47:00.665Z,9148
2022-08-22T11:47:59.573Z,9068
2022-08-22T11:49:01.216Z,8968
2022-08-22T11:50:02.749Z,8884
2022-08-22T11:51:02.269Z,8820
2022-08-22T11:52:03.141Z,8796
2022-08-22T11:53:07.691Z,8772
2022-08-22T11:54:04.185Z,8772
2022-08-22T11:55:04.883Z,8760
2022-08-22T11:56:10.600Z,8712
2022-08-22T11:57:05.694Z,8708
2022-08-22T11:58:06.747Z,8684
2022-08-22T11:59:08.974Z,8708
2022-08-22T12:00:09.230Z,8672
2022-08-22T12:01:14.462Z,8576
2022-08-22T12:02:15.477Z,8624
2022-08-22T12:03:11.931Z,8700
2022-08-22T12:04:17.902Z,8664
2022-08-22T12:05:11.777Z,8716
2022-08-22T12:06:13.371Z,8740
2022-08-22T12:07:11.832Z,8936
2022-08-22T12:08:13.989Z,2284
2022-08-22T12:09:15.060Z,3020
2022-08-22T12:10:20.888Z,3512
2022-08-22T12:11:15.364Z,1876
2022-08-22T12:12:17.058Z,1732
2022-08-22T12:13:19.957Z,3168
2022-08-22T12:14:19.459Z,2016
2022-08-22T12:15:22.265Z,7804
2022-08-22T12:16:18.854Z,8484
2022-08-22T12:18:07.509Z,8032
2022-08-22T12:18:32.352Z,7972
2022-08-22T12:19:45.166Z,7876
2022-08-22T12:20:31.892Z,7848
2022-08-22T12:21:33.751Z,7792
2022-08-22T12:22:34.508Z,7780
2022-08-22T12:23:56.102Z,7744
2022-08-22T12:24:33.835Z,7728
2022-08-22T12:25:34.016Z,7756
2022-08-22T12:26:35.511Z,7708
2022-08-22T12:27:40.719Z,7628
2022-08-22T12:28:36.577Z,7648
2022-08-22T12:29:51.043Z,5664
2022-08-22T12:30:36.964Z,1828
2022-08-22T12:31:38.140Z,1712
2022-08-22T12:32:43.781Z,1308
2022-08-22T12:33:39.127Z,1176
2022-08-22T12:34:38.714Z,1776
2022-08-22T12:35:41.561Z,4256
2022-08-22T12:36:40.887Z,5636
2022-08-22T12:37:59.064Z,4904
2022-08-22T12:38:43.943Z,2940
2022-08-22T12:39:46.803Z,7092
2022-08-22T12:40:49.011Z,7132
2022-08-22T12:41:53.518Z,7096
2022-08-22T12:42:47.490Z,7040
2022-08-22T12:43:49.446Z,6940
2022-08-22T12:44:44.798Z,6940
2022-08-22T12:45:46.136Z,6960
2022-08-22T12:46:53.151Z,6948
2022-08-22T12:47:49.907Z,7000
2022-08-22T12:48:48.646Z,6964
2022-08-22T12:49:57.968Z,6904
2022-08-22T12:50:50.162Z,6880
2022-08-22T12:51:55.741Z,6820
2022-08-22T12:52:50.879Z,6860
2022-08-22T12:53:50.447Z,6896
2022-08-22T12:54:51.826Z,7052
2022-08-22T12:55:51.501Z,7088
2022-08-22T12:56:58.625Z,7176
2022-08-22T12:58:06.767Z,1288
2022-08-22T12:58:57.032Z,1064
2022-08-22T12:59:54.921Z,932
2022-08-22T13:00:58.603Z,828
2022-08-22T13:01:56.063Z,776
2022-08-22T13:02:56.860Z,740
2022-08-22T13:03:56.088Z,716
2022-08-22T13:04:58.223Z,692
2022-08-22T13:06:20.297Z,660
2022-08-22T13:07:01.879Z,680
2022-08-22T13:08:10.791Z,688
2022-08-22T13:09:01.267Z,712
2022-08-22T13:10:04.750Z,780
2022-08-22T13:11:02.780Z,820
2022-08-22T13:12:07.433Z,928
2022-08-22T13:13:12.433Z,1044
2022-08-22T13:14:08.522Z,1140
2022-08-22T13:15:05.136Z,5140
2022-08-22T13:16:06.373Z,7140
2022-08-22T13:17:30.363Z,7544
2022-08-22T13:18:37.046Z,7176
2022-08-22T13:19:18.827Z,7008
2022-08-22T13:20:08.637Z,6836
2022-08-22T13:21:14.009Z,6532
2022-08-22T13:22:10.692Z,6272
2022-08-22T13:23:18.502Z,6212
2022-08-22T13:24:22.611Z,6280
2022-08-22T13:25:14.353Z,6312
2022-08-22T13:26:16.389Z,6304
2022-08-22T13:27:20.799Z,6280
2022-08-22T13:28:16.041Z,6264
2022-08-22T13:29:48.517Z,5992
2022-08-22T13:30:43.763Z,5780
2022-08-22T13:31:39.952Z,5696
2022-08-22T13:32:44.221Z,5692
2022-08-22T13:33:42.213Z,5528
2022-08-22T13:34:48.867Z,5364
2022-08-22T13:35:57.705Z,5316
2022-08-22T13:36:49.276Z,5220
2022-08-22T13:37:43.997Z,5008
2022-08-22T13:38:51.893Z,4708
2022-08-22T13:39:45.076Z,2148
2022-08-22T13:40:45.623Z,4832
2022-08-22T13:41:50.047Z,3640
2022-08-22T13:42:54.108Z,1092
2022-08-22T13:43:47.193Z,916
2022-08-22T13:44:50.475Z,1012
2022-08-22T13:45:49.852Z,924
2022-08-22T13:47:20.524Z,824
2022-08-22T13:47:54.370Z,804
2022-08-22T13:48:58.986Z,788
2022-08-22T13:49:50.280Z,828
2022-08-22T13:51:04.993Z,956
2022-08-22T13:52:04.663Z,1224
2022-08-22T13:53:06.991Z,904
2022-08-22T13:54:18.010Z,4132
2022-08-22T13:55:08.172Z,4388
2022-08-22T13:56:07.966Z,4412
2022-08-22T13:57:07.966Z,4484
2022-08-22T13:58:16.414Z,4480
2022-08-22T13:59:09.597Z,4500
2022-08-22T14:00:34.558Z,4344
2022-08-22T14:01:41.542Z,4208
2022-08-22T14:02:48.722Z,4072
2022-08-22T14:03:44.549Z,4004
2022-08-22T14:04:46.557Z,3932
2022-08-22T14:05:43.971Z,3816
2022-08-22T14:06:50.452Z,3792